sensor_id;sensor_type;location;lat;lon;timestamp;P1;durP1;ratioP1;P2;durP2;ratioP2
819;SDS011;392;48.838;2.322;2023-05-08T00:00:14;9.60;;;8.67;;
819;SDS011;392;48.838;2.322;2023-05-08T00:02:43;9.73;;;8.90;;
819;SDS011;392;48.838;2.322;2023-05-08T00:05:11;10.03;;;9.13;;
819;SDS011;392;48.838;2.322;2023-05-08T00:07:38;9.20;;;8.40;;
819;SDS011;392;48.838;2.322;2023-05-08T00:10:06;9.20;;;8.30;;
819;SDS011;392;48.838;2.322;2023-05-08T00:12:35;10.40;;;9.37;;
819;SDS011;392;48.838;2.322;2023-05-08T00:15:03;10.50;;;9.63;;
819;SDS011;392;48.838;2.322;2023-05-08T00:17:32;10.10;;;9.37;;
819;SDS011;392;48.838;2.322;2023-05-08T00:20:00;10.97;;;10.10;;
819;SDS011;392;48.838;2.322;2023-05-08T00:22:28;9.67;;;8.87;;
819;SDS011;392;48.838;2.322;2023-05-08T00:24:56;9.97;;;9.07;;
819;SDS011;392;48.838;2.322;2023-05-08T00:27:23;10.23;;;9.43;;
819;SDS011;392;48.838;2.322;2023-05-08T00:29:50;11.60;;;10.70;;
819;SDS011;392;48.838;2.322;2023-05-08T00:32:17;11.00;;;10.10;;
819;SDS011;392;48.838;2.322;2023-05-08T00:34:45;10.97;;;9.97;;
819;SDS011;392;48.838;2.322;2023-05-08T00:37:13;8.40;;;7.60;;
819;SDS011;392;48.838;2.322;2023-05-08T00:39:41;8.90;;;8.10;;
819;SDS011;392;48.838;2.322;2023-05-08T00:42:08;10.10;;;9.30;;
819;SDS011;392;48.838;2.322;2023-05-08T00:44:35;9.60;;;8.83;;
819;SDS011;392;48.838;2.322;2023-05-08T00:47:04;8.80;;;8.00;;
819;SDS011;392;48.838;2.322;2023-05-08T00:49:32;9.77;;;8.97;;
819;SDS011;392;48.838;2.322;2023-05-08T00:52:00;9.50;;;8.70;;
819;SDS011;392;48.838;2.322;2023-05-08T00:54:34;9.90;;;9.20;;
819;SDS011;392;48.838;2.322;2023-05-08T00:57:01;10.13;;;9.33;;
819;SDS011;392;48.838;2.322;2023-05-08T00:59:32;9.60;;;8.70;;
819;SDS011;392;48.838;2.322;2023-05-08T01:02:00;9.90;;;9.20;;
819;SDS011;392;48.838;2.322;2023-05-08T01:04:28;8.60;;;7.90;;
819;SDS011;392;48.838;2.322;2023-05-08T01:06:56;9.77;;;8.97;;
819;SDS011;392;48.838;2.322;2023-05-08T01:09:24;11.00;;;10.10;;
819;SDS011;392;48.838;2.322;2023-05-08T01:11:55;10.27;;;9.40;;
819;SDS011;392;48.838;2.322;2023-05-08T01:14:35;10.80;;;9.87;;
819;SDS011;392;48.838;2.322;2023-05-08T01:17:19;11.33;;;10.43;;
819;SDS011;392;48.838;2.322;2023-05-08T01:19:58;11.13;;;10.20;;
819;SDS011;392;48.838;2.322;2023-05-08T01:22:55;11.70;;;10.80;;
819;SDS011;392;48.838;2.322;2023-05-08T01:26:01;11.60;;;10.40;;
819;SDS011;392;48.838;2.322;2023-05-08T01:32:33;11.80;;;10.90;;
819;SDS011;392;48.838;2.322;2023-05-08T01:35:08;11.73;;;10.83;;
819;SDS011;392;48.838;2.322;2023-05-08T01:37:45;11.97;;;10.97;;
819;SDS011;392;48.838;2.322;2023-05-08T01:40:21;11.50;;;10.60;;
819;SDS011;392;48.838;2.322;2023-05-08T01:43:02;13.07;;;11.77;;
819;SDS011;392;48.838;2.322;2023-05-08T01:45:39;12.70;;;11.60;;
819;SDS011;392;48.838;2.322;2023-05-08T01:48:18;11.40;;;10.40;;
819;SDS011;392;48.838;2.322;2023-05-08T01:50:51;12.60;;;11.50;;
819;SDS011;392;48.838;2.322;2023-05-08T01:53:27;12.23;;;11.13;;
819;SDS011;392;48.838;2.322;2023-05-08T01:55:59;12.20;;;11.10;;
819;SDS011;392;48.838;2.322;2023-05-08T01:58:36;13.30;;;12.20;;
819;SDS011;392;48.838;2.322;2023-05-08T02:01:04;12.47;;;11.27;;
819;SDS011;392;48.838;2.322;2023-05-08T02:03:33;12.23;;;11.23;;
819;SDS011;392;48.838;2.322;2023-05-08T02:06:04;12.83;;;11.83;;
819;SDS011;392;48.838;2.322;2023-05-08T02:08:33;12.60;;;11.40;;
819;SDS011;392;48.838;2.322;2023-05-08T02:11:03;12.13;;;11.10;;
819;SDS011;392;48.838;2.322;2023-05-08T02:13:32;13.07;;;11.90;;
819;SDS011;392;48.838;2.322;2023-05-08T02:16:01;12.73;;;11.63;;
819;SDS011;392;48.838;2.322;2023-05-08T02:18:30;12.60;;;11.60;;
819;SDS011;392;48.838;2.322;2023-05-08T02:21:01;12.20;;;11.20;;
819;SDS011;392;48.838;2.322;2023-05-08T02:23:31;11.20;;;10.20;;
819;SDS011;392;48.838;2.322;2023-05-08T02:25:59;12.70;;;11.50;;
819;SDS011;392;48.838;2.322;2023-05-08T02:28:27;14.10;;;12.80;;
819;SDS011;392;48.838;2.322;2023-05-08T02:30:57;14.27;;;12.97;;
819;SDS011;392;48.838;2.322;2023-05-08T02:33:26;14.10;;;12.80;;
819;SDS011;392;48.838;2.322;2023-05-08T02:35:57;15.13;;;13.90;;
819;SDS011;392;48.838;2.322;2023-05-08T02:38:26;15.97;;;14.50;;
819;SDS011;392;48.838;2.322;2023-05-08T02:40:57;16.60;;;15.00;;
819;SDS011;392;48.838;2.322;2023-05-08T02:43:28;15.63;;;14.13;;
819;SDS011;392;48.838;2.322;2023-05-08T02:45:58;15.00;;;13.60;;
819;SDS011;392;48.838;2.322;2023-05-08T02:48:37;16.57;;;15.07;;
819;SDS011;392;48.838;2.322;2023-05-08T02:51:17;16.90;;;15.27;;
819;SDS011;392;48.838;2.322;2023-05-08T02:53:49;17.80;;;15.90;;
819;SDS011;392;48.838;2.322;2023-05-08T02:56:24;16.67;;;15.17;;
819;SDS011;392;48.838;2.322;2023-05-08T02:59:01;16.37;;;14.87;;
819;SDS011;392;48.838;2.322;2023-05-08T03:01:44;17.83;;;16.00;;
819;SDS011;392;48.838;2.322;2023-05-08T03:04:18;17.50;;;16.00;;
819;SDS011;392;48.838;2.322;2023-05-08T03:06:53;18.53;;;16.70;;
819;SDS011;392;48.838;2.322;2023-05-08T03:09:23;19.43;;;17.57;;
819;SDS011;392;48.838;2.322;2023-05-08T03:11:58;19.27;;;17.37;;
819;SDS011;392;48.838;2.322;2023-05-08T03:14:31;19.90;;;17.80;;
819;SDS011;392;48.838;2.322;2023-05-08T03:17:05;19.53;;;17.63;;
819;SDS011;392;48.838;2.322;2023-05-08T03:19:35;19.63;;;17.83;;
819;SDS011;392;48.838;2.322;2023-05-08T03:22:06;19.73;;;17.60;;
819;SDS011;392;48.838;2.322;2023-05-08T03:24:36;20.30;;;18.23;;
819;SDS011;392;48.838;2.322;2023-05-08T03:27:05;18.73;;;16.83;;
819;SDS011;392;48.838;2.322;2023-05-08T03:29:34;19.20;;;17.23;;
819;SDS011;392;48.838;2.322;2023-05-08T03:32:04;18.73;;;16.83;;
819;SDS011;392;48.838;2.322;2023-05-08T03:34:32;18.90;;;17.13;;
819;SDS011;392;48.838;2.322;2023-05-08T03:37:01;18.87;;;17.00;;
819;SDS011;392;48.838;2.322;2023-05-08T03:39:30;19.37;;;17.43;;
819;SDS011;392;48.838;2.322;2023-05-08T03:41:57;20.03;;;18.03;;
819;SDS011;392;48.838;2.322;2023-05-08T03:44:26;20.60;;;18.40;;
819;SDS011;392;48.838;2.322;2023-05-08T03:46:55;18.50;;;16.60;;
819;SDS011;392;48.838;2.322;2023-05-08T03:49:24;21.33;;;18.70;;
819;SDS011;392;48.838;2.322;2023-05-08T03:51:52;21.80;;;18.53;;
819;SDS011;392;48.838;2.322;2023-05-08T03:54:20;19.93;;;17.83;;
819;SDS011;392;48.838;2.322;2023-05-08T03:56:52;21.07;;;18.20;;
819;SDS011;392;48.838;2.322;2023-05-08T03:59:23;21.27;;;18.50;;
819;SDS011;392;48.838;2.322;2023-05-08T04:02:07;21.80;;;19.40;;
819;SDS011;392;48.838;2.322;2023-05-08T04:04:44;21.50;;;19.30;;
819;SDS011;392;48.838;2.322;2023-05-08T04:07:19;20.63;;;18.43;;
819;SDS011;392;48.838;2.322;2023-05-08T04:09:54;23.80;;;19.00;;
819;SDS011;392;48.838;2.322;2023-05-08T04:12:31;20.87;;;18.77;;
819;SDS011;392;48.838;2.322;2023-05-08T04:15:07;19.97;;;17.93;;
819;SDS011;392;48.838;2.322;2023-05-08T04:17:41;20.23;;;18.23;;
819;SDS011;392;48.838;2.322;2023-05-08T04:20:16;18.53;;;16.63;;
819;SDS011;392;48.838;2.322;2023-05-08T04:22:47;19.07;;;17.17;;
819;SDS011;392;48.838;2.322;2023-05-08T04:25:16;20.03;;;17.80;;
819;SDS011;392;48.838;2.322;2023-05-08T04:27:47;20.50;;;18.30;;
819;SDS011;392;48.838;2.322;2023-05-08T04:30:15;20.97;;;18.80;;
819;SDS011;392;48.838;2.322;2023-05-08T04:32:43;21.33;;;19.20;;
819;SDS011;392;48.838;2.322;2023-05-08T04:35:12;19.80;;;17.80;;
819;SDS011;392;48.838;2.322;2023-05-08T04:37:40;18.70;;;16.80;;
819;SDS011;392;48.838;2.322;2023-05-08T04:40:08;19.73;;;17.77;;
819;SDS011;392;48.838;2.322;2023-05-08T04:42:37;19.93;;;17.77;;
819;SDS011;392;48.838;2.322;2023-05-08T04:45:09;19.13;;;17.03;;
819;SDS011;392;48.838;2.322;2023-05-08T04:47:37;20.63;;;18.43;;
819;SDS011;392;48.838;2.322;2023-05-08T04:50:05;19.00;;;17.20;;
819;SDS011;392;48.838;2.322;2023-05-08T04:52:34;18.20;;;16.30;;
819;SDS011;392;48.838;2.322;2023-05-08T04:55:01;19.20;;;16.87;;
819;SDS011;392;48.838;2.322;2023-05-08T04:57:32;17.33;;;15.63;;
819;SDS011;392;48.838;2.322;2023-05-08T04:59:59;18.77;;;16.83;;
819;SDS011;392;48.838;2.322;2023-05-08T05:02:30;18.03;;;16.13;;
819;SDS011;392;48.838;2.322;2023-05-08T05:04:57;20.83;;;18.60;;
819;SDS011;392;48.838;2.322;2023-05-08T05:07:26;20.43;;;15.73;;
819;SDS011;392;48.838;2.322;2023-05-08T05:09:53;19.17;;;17.23;;
819;SDS011;392;48.838;2.322;2023-05-08T05:12:21;18.30;;;16.40;;
819;SDS011;392;48.838;2.322;2023-05-08T05:14:49;19.23;;;17.23;;
819;SDS011;392;48.838;2.322;2023-05-08T05:17:17;17.30;;;15.50;;
819;SDS011;392;48.838;2.322;2023-05-08T05:19:46;18.23;;;16.33;;
819;SDS011;392;48.838;2.322;2023-05-08T05:22:14;15.17;;;13.67;;
819;SDS011;392;48.838;2.322;2023-05-08T05:24:41;16.07;;;14.47;;
819;SDS011;392;48.838;2.322;2023-05-08T05:27:08;15.60;;;14.10;;
819;SDS011;392;48.838;2.322;2023-05-08T05:29:36;15.10;;;13.20;;
819;SDS011;392;48.838;2.322;2023-05-08T05:32:03;15.60;;;14.00;;
819;SDS011;392;48.838;2.322;2023-05-08T05:34:31;16.30;;;14.60;;
819;SDS011;392;48.838;2.322;2023-05-08T05:37:00;16.00;;;14.50;;
819;SDS011;392;48.838;2.322;2023-05-08T05:39:27;15.27;;;13.67;;
819;SDS011;392;48.838;2.322;2023-05-08T05:41:55;14.87;;;13.37;;
819;SDS011;392;48.838;2.322;2023-05-08T05:44:23;15.83;;;14.27;;
819;SDS011;392;48.838;2.322;2023-05-08T05:46:50;13.30;;;12.10;;
819;SDS011;392;48.838;2.322;2023-05-08T05:49:17;14.10;;;12.80;;
819;SDS011;392;48.838;2.322;2023-05-08T05:51:45;14.67;;;13.27;;
819;SDS011;392;48.838;2.322;2023-05-08T05:54:14;12.90;;;11.70;;
819;SDS011;392;48.838;2.322;2023-05-08T05:56:42;14.20;;;12.90;;
819;SDS011;392;48.838;2.322;2023-05-08T05:59:09;15.70;;;14.03;;
819;SDS011;392;48.838;2.322;2023-05-08T06:01:36;13.93;;;12.63;;
819;SDS011;392;48.838;2.322;2023-05-08T06:04:04;14.70;;;13.30;;
819;SDS011;392;48.838;2.322;2023-05-08T06:06:32;13.87;;;12.57;;
819;SDS011;392;48.838;2.322;2023-05-08T06:08:59;14.23;;;12.93;;
819;SDS011;392;48.838;2.322;2023-05-08T06:11:27;12.47;;;11.20;;
819;SDS011;392;48.838;2.322;2023-05-08T06:13:55;14.87;;;13.37;;
819;SDS011;392;48.838;2.322;2023-05-08T06:16:22;11.93;;;10.67;;
819;SDS011;392;48.838;2.322;2023-05-08T06:18:50;14.20;;;12.90;;
819;SDS011;392;48.838;2.322;2023-05-08T06:21:17;12.83;;;11.70;;
819;SDS011;392;48.838;2.322;2023-05-08T06:23:44;12.90;;;11.00;;
819;SDS011;392;48.838;2.322;2023-05-08T06:26:12;14.20;;;12.90;;
819;SDS011;392;48.838;2.322;2023-05-08T06:28:40;11.57;;;10.37;;
819;SDS011;392;48.838;2.322;2023-05-08T06:31:08;11.50;;;10.40;;
819;SDS011;392;48.838;2.322;2023-05-08T06:33:35;12.00;;;10.80;;
819;SDS011;392;48.838;2.322;2023-05-08T06:36:03;11.37;;;10.17;;
819;SDS011;392;48.838;2.322;2023-05-08T06:38:31;12.80;;;10.80;;
819;SDS011;392;48.838;2.322;2023-05-08T06:40:58;13.50;;;12.20;;
819;SDS011;392;48.838;2.322;2023-05-08T06:43:25;12.50;;;10.77;;
819;SDS011;392;48.838;2.322;2023-05-08T06:45:54;12.43;;;10.80;;
819;SDS011;392;48.838;2.322;2023-05-08T06:48:21;12.70;;;11.37;;
819;SDS011;392;48.838;2.322;2023-05-08T06:50:53;11.97;;;10.77;;
819;SDS011;392;48.838;2.322;2023-05-08T06:53:20;12.20;;;9.67;;
819;SDS011;392;48.838;2.322;2023-05-08T06:55:47;13.30;;;12.10;;
819;SDS011;392;48.838;2.322;2023-05-08T06:58:15;11.70;;;10.50;;
819;SDS011;392;48.838;2.322;2023-05-08T07:00:42;10.40;;;9.37;;
819;SDS011;392;48.838;2.322;2023-05-08T07:03:11;12.20;;;10.90;;
819;SDS011;392;48.838;2.322;2023-05-08T07:05:39;11.37;;;10.27;;
819;SDS011;392;48.838;2.322;2023-05-08T07:08:06;10.53;;;9.40;;
819;SDS011;392;48.838;2.322;2023-05-08T07:10:33;11.10;;;9.93;;
819;SDS011;392;48.838;2.322;2023-05-08T07:13:00;11.50;;;10.30;;
819;SDS011;392;48.838;2.322;2023-05-08T07:15:29;11.10;;;10.00;;
819;SDS011;392;48.838;2.322;2023-05-08T07:17:57;9.67;;;8.77;;
819;SDS011;392;48.838;2.322;2023-05-08T07:20:25;11.23;;;10.10;;
819;SDS011;392;48.838;2.322;2023-05-08T07:22:53;10.77;;;8.63;;
819;SDS011;392;48.838;2.322;2023-05-08T07:25:20;8.90;;;8.00;;
819;SDS011;392;48.838;2.322;2023-05-08T07:27:47;8.83;;;7.80;;
819;SDS011;392;48.838;2.322;2023-05-08T07:30:15;9.00;;;8.10;;
819;SDS011;392;48.838;2.322;2023-05-08T07:32:42;11.33;;;8.90;;
819;SDS011;392;48.838;2.322;2023-05-08T07:35:09;9.37;;;8.40;;
819;SDS011;392;48.838;2.322;2023-05-08T07:37:38;9.00;;;8.10;;
819;SDS011;392;48.838;2.322;2023-05-08T07:40:06;8.70;;;7.90;;
819;SDS011;392;48.838;2.322;2023-05-08T07:42:37;8.03;;;7.33;;
819;SDS011;392;48.838;2.322;2023-05-08T07:45:06;8.37;;;7.57;;
819;SDS011;392;48.838;2.322;2023-05-08T07:47:36;9.03;;;8.13;;
819;SDS011;392;48.838;2.322;2023-05-08T07:50:03;9.97;;;8.97;;
819;SDS011;392;48.838;2.322;2023-05-08T07:52:32;10.37;;;9.30;;
819;SDS011;392;48.838;2.322;2023-05-08T07:55:01;10.30;;;9.30;;
819;SDS011;392;48.838;2.322;2023-05-08T07:57:34;8.67;;;7.87;;
819;SDS011;392;48.838;2.322;2023-05-08T08:00:03;9.60;;;8.30;;
819;SDS011;392;48.838;2.322;2023-05-08T08:02:39;8.57;;;7.73;;
819;SDS011;392;48.838;2.322;2023-05-08T08:05:06;9.10;;;8.20;;
819;SDS011;392;48.838;2.322;2023-05-08T08:07:34;10.17;;;9.27;;
819;SDS011;392;48.838;2.322;2023-05-08T08:10:03;10.53;;;9.47;;
819;SDS011;392;48.838;2.322;2023-05-08T08:12:32;8.97;;;8.17;;
819;SDS011;392;48.838;2.322;2023-05-08T08:15:00;10.60;;;9.57;;
819;SDS011;392;48.838;2.322;2023-05-08T08:17:29;10.07;;;9.13;;
819;SDS011;392;48.838;2.322;2023-05-08T08:19:56;10.13;;;9.03;;
819;SDS011;392;48.838;2.322;2023-05-08T08:22:24;11.40;;;10.20;;
819;SDS011;392;48.838;2.322;2023-05-08T08:24:53;10.63;;;9.63;;
819;SDS011;392;48.838;2.322;2023-05-08T08:27:22;10.80;;;9.80;;
819;SDS011;392;48.838;2.322;2023-05-08T08:29:50;11.30;;;10.10;;
819;SDS011;392;48.838;2.322;2023-05-08T08:32:17;10.07;;;9.00;;
819;SDS011;392;48.838;2.322;2023-05-08T08:34:44;9.93;;;8.93;;
819;SDS011;392;48.838;2.322;2023-05-08T08:37:11;8.17;;;7.50;;
819;SDS011;392;48.838;2.322;2023-05-08T08:39:39;7.77;;;7.17;;
819;SDS011;392;48.838;2.322;2023-05-08T08:42:06;7.90;;;7.20;;
819;SDS011;392;48.838;2.322;2023-05-08T08:44:34;7.53;;;6.73;;
819;SDS011;392;48.838;2.322;2023-05-08T08:47:02;7.60;;;7.00;;
819;SDS011;392;48.838;2.322;2023-05-08T08:49:31;8.10;;;7.27;;
819;SDS011;392;48.838;2.322;2023-05-08T08:52:01;8.53;;;7.53;;
819;SDS011;392;48.838;2.322;2023-05-08T08:54:45;8.73;;;7.27;;
819;SDS011;392;48.838;2.322;2023-05-08T08:57:16;6.77;;;6.23;;
819;SDS011;392;48.838;2.322;2023-05-08T08:59:45;7.60;;;6.90;;
819;SDS011;392;48.838;2.322;2023-05-08T09:02:13;7.23;;;6.63;;
819;SDS011;392;48.838;2.322;2023-05-08T09:04:44;8.17;;;7.37;;
819;SDS011;392;48.838;2.322;2023-05-08T09:07:15;8.63;;;7.83;;
819;SDS011;392;48.838;2.322;2023-05-08T09:09:43;7.80;;;7.10;;
819;SDS011;392;48.838;2.322;2023-05-08T09:12:13;7.53;;;6.93;;
819;SDS011;392;48.838;2.322;2023-05-08T09:14:40;7.97;;;7.30;;
819;SDS011;392;48.838;2.322;2023-05-08T09:17:09;7.87;;;7.17;;
819;SDS011;392;48.838;2.322;2023-05-08T09:19:36;8.20;;;7.50;;
819;SDS011;392;48.838;2.322;2023-05-08T09:22:04;8.23;;;7.43;;
819;SDS011;392;48.838;2.322;2023-05-08T09:27:21;8.33;;;7.57;;
819;SDS011;392;48.838;2.322;2023-05-08T09:29:57;8.43;;;7.70;;
819;SDS011;392;48.838;2.322;2023-05-08T09:32:29;8.53;;;7.73;;
819;SDS011;392;48.838;2.322;2023-05-08T09:34:58;8.20;;;7.40;;
819;SDS011;392;48.838;2.322;2023-05-08T09:37:26;7.73;;;7.03;;
819;SDS011;392;48.838;2.322;2023-05-08T09:39:54;7.80;;;7.10;;
819;SDS011;392;48.838;2.322;2023-05-08T09:42:39;9.03;;;8.23;;
819;SDS011;392;48.838;2.322;2023-05-08T09:45:07;8.10;;;7.30;;
819;SDS011;392;48.838;2.322;2023-05-08T09:47:37;8.20;;;7.37;;
819;SDS011;392;48.838;2.322;2023-05-08T09:50:13;8.50;;;7.80;;
819;SDS011;392;48.838;2.322;2023-05-08T09:52:44;7.70;;;7.03;;
819;SDS011;392;48.838;2.322;2023-05-08T09:55:13;7.27;;;6.63;;
819;SDS011;392;48.838;2.322;2023-05-08T09:57:50;9.03;;;8.23;;
819;SDS011;392;48.838;2.322;2023-05-08T10:00:21;8.13;;;7.53;;
819;SDS011;392;48.838;2.322;2023-05-08T10:02:54;9.60;;;8.80;;
819;SDS011;392;48.838;2.322;2023-05-08T10:05:24;8.73;;;8.17;;
819;SDS011;392;48.838;2.322;2023-05-08T10:07:54;9.40;;;8.80;;
819;SDS011;392;48.838;2.322;2023-05-08T10:10:22;9.97;;;9.27;;
819;SDS011;392;48.838;2.322;2023-05-08T10:12:51;10.33;;;9.60;;
819;SDS011;392;48.838;2.322;2023-05-08T10:15:21;10.53;;;9.73;;
819;SDS011;392;48.838;2.322;2023-05-08T10:17:51;10.50;;;9.60;;
819;SDS011;392;48.838;2.322;2023-05-08T10:20:28;11.60;;;10.83;;
819;SDS011;392;48.838;2.322;2023-05-08T10:22:57;9.83;;;9.20;;
819;SDS011;392;48.838;2.322;2023-05-08T10:25:25;11.50;;;10.80;;
819;SDS011;392;48.838;2.322;2023-05-08T10:27:58;10.00;;;9.40;;
819;SDS011;392;48.838;2.322;2023-05-08T10:30:33;8.93;;;8.43;;
819;SDS011;392;48.838;2.322;2023-05-08T10:33:05;8.33;;;7.93;;
819;SDS011;392;48.838;2.322;2023-05-08T10:35:36;9.87;;;9.27;;
819;SDS011;392;48.838;2.322;2023-05-08T10:38:04;9.30;;;8.70;;
819;SDS011;392;48.838;2.322;2023-05-08T10:40:34;10.03;;;9.30;;
819;SDS011;392;48.838;2.322;2023-05-08T10:43:04;8.73;;;8.33;;
819;SDS011;392;48.838;2.322;2023-05-08T10:45:33;11.00;;;10.30;;
819;SDS011;392;48.838;2.322;2023-05-08T10:48:04;10.10;;;9.60;;
819;SDS011;392;48.838;2.322;2023-05-08T10:50:45;9.10;;;8.50;;
819;SDS011;392;48.838;2.322;2023-05-08T10:53:24;8.73;;;8.23;;
819;SDS011;392;48.838;2.322;2023-05-08T10:56:01;10.07;;;9.47;;
819;SDS011;392;48.838;2.322;2023-05-08T10:58:30;8.27;;;7.70;;
819;SDS011;392;48.838;2.322;2023-05-08T11:01:11;10.33;;;9.63;;
819;SDS011;392;48.838;2.322;2023-05-08T11:03:42;8.33;;;7.77;;
819;SDS011;392;48.838;2.322;2023-05-08T11:06:12;8.40;;;7.80;;
819;SDS011;392;48.838;2.322;2023-05-08T11:08:47;7.07;;;6.63;;
819;SDS011;392;48.838;2.322;2023-05-08T11:14:01;7.43;;;6.93;;
819;SDS011;392;48.838;2.322;2023-05-08T11:19:34;6.40;;;5.90;;
819;SDS011;392;48.838;2.322;2023-05-08T11:24:58;7.90;;;7.30;;
819;SDS011;392;48.838;2.322;2023-05-08T11:27:29;8.10;;;7.50;;
819;SDS011;392;48.838;2.322;2023-05-08T11:30:35;8.90;;;8.20;;
819;SDS011;392;48.838;2.322;2023-05-08T11:33:11;8.83;;;8.23;;
819;SDS011;392;48.838;2.322;2023-05-08T11:35:43;8.00;;;7.50;;
819;SDS011;392;48.838;2.322;2023-05-08T11:38:16;7.37;;;6.87;;
819;SDS011;392;48.838;2.322;2023-05-08T11:40:46;8.97;;;8.33;;
819;SDS011;392;48.838;2.322;2023-05-08T11:46:43;8.03;;;7.43;;
819;SDS011;392;48.838;2.322;2023-05-08T11:49:18;7.33;;;6.83;;
819;SDS011;392;48.838;2.322;2023-05-08T11:51:49;7.50;;;7.00;;
819;SDS011;392;48.838;2.322;2023-05-08T11:54:19;7.00;;;6.60;;
819;SDS011;392;48.838;2.322;2023-05-08T11:56:48;7.77;;;7.33;;
819;SDS011;392;48.838;2.322;2023-05-08T11:59:18;7.40;;;6.90;;
819;SDS011;392;48.838;2.322;2023-05-08T12:01:47;7.97;;;7.30;;
819;SDS011;392;48.838;2.322;2023-05-08T12:04:15;7.60;;;7.10;;
819;SDS011;392;48.838;2.322;2023-05-08T12:06:42;7.30;;;6.80;;
819;SDS011;392;48.838;2.322;2023-05-08T12:09:14;8.40;;;7.83;;
819;SDS011;392;48.838;2.322;2023-05-08T12:11:44;8.33;;;7.83;;
819;SDS011;392;48.838;2.322;2023-05-08T12:14:12;12.07;;;11.17;;
819;SDS011;392;48.838;2.322;2023-05-08T12:16:43;7.00;;;6.60;;
819;SDS011;392;48.838;2.322;2023-05-08T12:19:10;8.10;;;7.50;;
819;SDS011;392;48.838;2.322;2023-05-08T12:21:39;7.97;;;7.37;;
819;SDS011;392;48.838;2.322;2023-05-08T12:24:14;6.47;;;5.93;;
819;SDS011;392;48.838;2.322;2023-05-08T12:26:46;6.73;;;6.20;;
819;SDS011;392;48.838;2.322;2023-05-08T12:29:17;6.40;;;6.00;;
819;SDS011;392;48.838;2.322;2023-05-08T12:31:45;7.70;;;7.10;;
819;SDS011;392;48.838;2.322;2023-05-08T12:34:14;7.50;;;6.90;;
819;SDS011;392;48.838;2.322;2023-05-08T12:36:41;8.07;;;6.93;;
819;SDS011;392;48.838;2.322;2023-05-08T12:39:10;6.37;;;5.90;;
819;SDS011;392;48.838;2.322;2023-05-08T12:41:44;7.00;;;6.40;;
819;SDS011;392;48.838;2.322;2023-05-08T12:44:16;6.83;;;6.33;;
819;SDS011;392;48.838;2.322;2023-05-08T12:46:45;6.80;;;6.37;;
819;SDS011;392;48.838;2.322;2023-05-08T12:49:21;7.30;;;6.80;;
819;SDS011;392;48.838;2.322;2023-05-08T12:51:50;9.70;;;9.03;;
819;SDS011;392;48.838;2.322;2023-05-08T12:54:18;7.50;;;7.00;;
819;SDS011;392;48.838;2.322;2023-05-08T12:56:47;6.93;;;6.53;;
819;SDS011;392;48.838;2.322;2023-05-08T12:59:15;5.97;;;5.57;;
819;SDS011;392;48.838;2.322;2023-05-08T13:01:54;6.83;;;6.33;;
819;SDS011;392;48.838;2.322;2023-05-08T13:04:21;6.40;;;6.00;;
819;SDS011;392;48.838;2.322;2023-05-08T13:06:52;7.30;;;6.80;;
819;SDS011;392;48.838;2.322;2023-05-08T13:09:21;6.63;;;6.10;;
819;SDS011;392;48.838;2.322;2023-05-08T13:11:50;6.27;;;5.87;;
819;SDS011;392;48.838;2.322;2023-05-08T13:14:17;6.87;;;6.50;;
819;SDS011;392;48.838;2.322;2023-05-08T13:16:45;5.70;;;5.40;;
819;SDS011;392;48.838;2.322;2023-05-08T13:19:13;5.53;;;5.23;;
819;SDS011;392;48.838;2.322;2023-05-08T13:21:40;5.87;;;5.40;;
819;SDS011;392;48.838;2.322;2023-05-08T13:24:11;5.63;;;5.30;;
819;SDS011;392;48.838;2.322;2023-05-08T13:26:38;5.97;;;5.67;;
819;SDS011;392;48.838;2.322;2023-05-08T13:29:07;6.43;;;6.00;;
819;SDS011;392;48.838;2.322;2023-05-08T13:31:34;5.70;;;5.33;;
819;SDS011;392;48.838;2.322;2023-05-08T13:34:02;5.33;;;4.87;;
819;SDS011;392;48.838;2.322;2023-05-08T13:36:29;5.20;;;4.90;;
819;SDS011;392;48.838;2.322;2023-05-08T13:38:57;6.90;;;6.30;;
819;SDS011;392;48.838;2.322;2023-05-08T13:41:24;11.03;;;8.83;;
819;SDS011;392;48.838;2.322;2023-05-08T13:43:51;14.00;;;7.97;;
819;SDS011;392;48.838;2.322;2023-05-08T13:46:20;9.10;;;7.33;;
819;SDS011;392;48.838;2.322;2023-05-08T13:48:49;8.97;;;6.63;;
819;SDS011;392;48.838;2.322;2023-05-08T13:51:16;4.50;;;4.20;;
819;SDS011;392;48.838;2.322;2023-05-08T13:53:43;5.23;;;4.77;;
819;SDS011;392;48.838;2.322;2023-05-08T13:56:10;4.97;;;4.70;;
819;SDS011;392;48.838;2.322;2023-05-08T13:58:38;5.33;;;5.00;;
819;SDS011;392;48.838;2.322;2023-05-08T14:01:05;5.40;;;4.90;;
819;SDS011;392;48.838;2.322;2023-05-08T14:03:34;5.17;;;4.70;;
819;SDS011;392;48.838;2.322;2023-05-08T14:06:01;5.00;;;4.70;;
819;SDS011;392;48.838;2.322;2023-05-08T14:08:30;4.87;;;4.67;;
819;SDS011;392;48.838;2.322;2023-05-08T14:10:57;4.47;;;4.27;;
819;SDS011;392;48.838;2.322;2023-05-08T14:13:25;3.90;;;3.73;;
819;SDS011;392;48.838;2.322;2023-05-08T14:15:52;4.90;;;4.60;;
819;SDS011;392;48.838;2.322;2023-05-08T14:18:19;4.90;;;4.67;;
819;SDS011;392;48.838;2.322;2023-05-08T14:20:48;4.50;;;4.30;;
819;SDS011;392;48.838;2.322;2023-05-08T14:23:16;4.90;;;4.70;;
819;SDS011;392;48.838;2.322;2023-05-08T14:25:43;4.90;;;4.60;;
819;SDS011;392;48.838;2.322;2023-05-08T14:28:10;4.27;;;4.07;;
819;SDS011;392;48.838;2.322;2023-05-08T14:30:38;4.93;;;4.53;;
819;SDS011;392;48.838;2.322;2023-05-08T14:33:05;4.93;;;4.57;;
819;SDS011;392;48.838;2.322;2023-05-08T14:35:32;4.13;;;3.93;;
819;SDS011;392;48.838;2.322;2023-05-08T14:38:01;4.40;;;4.10;;
819;SDS011;392;48.838;2.322;2023-05-08T14:40:28;3.80;;;3.60;;
819;SDS011;392;48.838;2.322;2023-05-08T14:42:56;7.93;;;7.53;;
819;SDS011;392;48.838;2.322;2023-05-08T14:45:23;4.40;;;4.20;;
819;SDS011;392;48.838;2.322;2023-05-08T14:47:50;4.40;;;4.00;;
819;SDS011;392;48.838;2.322;2023-05-08T14:50:18;5.13;;;4.93;;
819;SDS011;392;48.838;2.322;2023-05-08T14:52:45;4.70;;;4.50;;
819;SDS011;392;48.838;2.322;2023-05-08T14:55:13;3.47;;;3.37;;
819;SDS011;392;48.838;2.322;2023-05-08T14:57:44;4.30;;;4.07;;
819;SDS011;392;48.838;2.322;2023-05-08T15:00:12;4.90;;;4.67;;
819;SDS011;392;48.838;2.322;2023-05-08T15:02:41;5.90;;;5.60;;
819;SDS011;392;48.838;2.322;2023-05-08T15:05:09;5.27;;;4.97;;
819;SDS011;392;48.838;2.322;2023-05-08T15:07:36;4.73;;;4.53;;
819;SDS011;392;48.838;2.322;2023-05-08T15:10:04;5.37;;;5.07;;
819;SDS011;392;48.838;2.322;2023-05-08T15:12:33;4.03;;;3.83;;
819;SDS011;392;48.838;2.322;2023-05-08T15:15:01;6.20;;;5.90;;
819;SDS011;392;48.838;2.322;2023-05-08T15:17:28;4.70;;;4.30;;
819;SDS011;392;48.838;2.322;2023-05-08T15:19:55;3.83;;;3.73;;
819;SDS011;392;48.838;2.322;2023-05-08T15:22:23;3.73;;;3.53;;
819;SDS011;392;48.838;2.322;2023-05-08T15:24:50;3.97;;;3.77;;
819;SDS011;392;48.838;2.322;2023-05-08T15:27:18;3.77;;;3.57;;
819;SDS011;392;48.838;2.322;2023-05-08T15:29:47;4.43;;;4.20;;
819;SDS011;392;48.838;2.322;2023-05-08T15:32:14;3.50;;;3.30;;
819;SDS011;392;48.838;2.322;2023-05-08T15:34:41;3.60;;;3.50;;
819;SDS011;392;48.838;2.322;2023-05-08T15:37:09;3.53;;;3.33;;
819;SDS011;392;48.838;2.322;2023-05-08T15:39:36;3.60;;;3.50;;
819;SDS011;392;48.838;2.322;2023-05-08T15:42:04;3.27;;;3.10;;
819;SDS011;392;48.838;2.322;2023-05-08T15:44:31;3.53;;;3.33;;
819;SDS011;392;48.838;2.322;2023-05-08T15:47:00;4.80;;;4.50;;
819;SDS011;392;48.838;2.322;2023-05-08T15:49:27;4.00;;;3.90;;
819;SDS011;392;48.838;2.322;2023-05-08T15:51:55;5.50;;;4.40;;
819;SDS011;392;48.838;2.322;2023-05-08T15:54:22;4.07;;;3.87;;
819;SDS011;392;48.838;2.322;2023-05-08T15:56:49;4.00;;;3.70;;
819;SDS011;392;48.838;2.322;2023-05-08T15:59:17;5.87;;;5.40;;
819;SDS011;392;48.838;2.322;2023-05-08T16:01:44;3.60;;;3.50;;
819;SDS011;392;48.838;2.322;2023-05-08T16:04:13;3.80;;;3.60;;
819;SDS011;392;48.838;2.322;2023-05-08T16:06:41;3.70;;;3.60;;